createdAt,value
2022-09-28T00:00:17.142Z,9.71
2022-09-28T00:03:18.850Z,9.67
2022-09-28T00:06:23.725Z,9.69
2022-09-28T00:09:26.148Z,9.64
2022-09-28T00:12:28.635Z,9.72
2022-09-28T00:15:30.536Z,9.63
2022-09-28T00:18:33.456Z,9.56
2022-09-28T00:21:37.839Z,9.57
2022-09-28T00:24:39.516Z,9.55
2022-09-28T00:27:41.408Z,9.64
2022-09-28T00:30:43.019Z,9.60
2022-09-28T00:33:45.072Z,9.61
2022-09-28T00:36:48.136Z,9.67
2022-09-28T00:39:50.458Z,9.61
2022-09-28T00:42:52.112Z,9.65
2022-09-28T00:46:00.684Z,9.67
2022-09-28T00:49:08.891Z,9.56
2022-09-28T00:52:25.289Z,9.55
2022-09-28T00:55:46.564Z,9.53
2022-09-28T00:58:53.409Z,9.52
2022-09-28T01:01:56.005Z,9.42
2022-09-28T01:04:59.489Z,9.47
2022-09-28T01:08:02.853Z,9.42
2022-09-28T01:11:05.225Z,9.48
2022-09-28T01:14:11.921Z,9.54
2022-09-28T01:17:22.907Z,9.49
2022-09-28T01:20:43.869Z,9.51
2022-09-28T01:23:54.785Z,9.40
2022-09-28T01:27:13.821Z,9.41
2022-09-28T01:30:18.234Z,9.43
2022-09-28T01:33:26.320Z,9.41
2022-09-28T01:36:36.812Z,9.36
2022-09-28T01:39:42.738Z,9.42
2022-09-28T01:42:51.692Z,9.36
2022-09-28T01:46:02.095Z,9.35
2022-09-28T01:49:10.303Z,9.37
2022-09-28T01:52:35.619Z,9.39
2022-09-28T01:55:43.752Z,9.37
2022-09-28T01:59:06.591Z,9.37
2022-09-28T02:02:24.093Z,9.36
2022-09-28T02:05:39.392Z,9.41
2022-09-28T02:08:49.556Z,9.48
2022-09-28T02:11:59.046Z,9.46
2022-09-28T02:15:19.292Z,9.39
2022-09-28T02:18:21.092Z,9.30
2022-09-28T02:21:32.807Z,9.27
2022-09-28T02:24:43.158Z,9.21
2022-09-28T02:28:06.769Z,9.21
2022-09-28T02:31:08.480Z,9.15
2022-09-28T02:34:16.443Z,9.08
2022-09-28T02:37:18.241Z,9.08
2022-09-28T02:40:23.616Z,9.08
2022-09-28T02:43:49.512Z,9.20
2022-09-28T02:47:07.044Z,9.09
2022-09-28T02:50:11.575Z,9.04
2022-09-28T02:53:25.336Z,8.96
2022-09-28T02:56:54.573Z,8.97
2022-09-28T03:00:10.462Z,8.92
2022-09-28T03:03:21.510Z,8.88
2022-09-28T03:06:31.371Z,8.92
2022-09-28T03:09:51.344Z,8.83
2022-09-28T03:12:54.749Z,8.81
2022-09-28T03:16:11.593Z,8.84
2022-09-28T03:19:14.178Z,8.77
2022-09-28T03:22:16.094Z,8.79
2022-09-28T03:25:18.047Z,8.76
2022-09-28T03:28:21.412Z,8.77
2022-09-28T03:31:23.929Z,8.85
2022-09-28T03:34:25.630Z,8.93
2022-09-28T03:37:28.957Z,9.03
2022-09-28T03:40:30.705Z,9.19
2022-09-28T03:43:36.677Z,9.25
2022-09-28T03:46:38.320Z,9.25
2022-09-28T03:49:41.655Z,9.24
2022-09-28T03:52:47.382Z,9.30
2022-09-28T03:55:50.635Z,9.36
2022-09-28T03:58:53.233Z,9.31
2022-09-28T04:01:55.387Z,9.25
2022-09-28T04:04:57.464Z,9.13
2022-09-28T04:07:59.383Z,9.20
2022-09-28T04:11:01.900Z,9.06
2022-09-28T04:14:04.590Z,8.99
2022-09-28T04:17:07.456Z,9.03
2022-09-28T04:20:09.322Z,9.08
2022-09-28T04:23:11.289Z,9.12
2022-09-28T04:26:20.958Z,9.17
2022-09-28T04:29:23.011Z,9.14
2022-09-28T04:32:24.917Z,9.20
2022-09-28T04:35:26.750Z,9.28
2022-09-28T04:38:48.731Z,9.29
2022-09-28T04:41:50.272Z,9.28
2022-09-28T04:44:54.090Z,9.25
2022-09-28T04:47:55.996Z,9.22
2022-09-28T04:51:00.499Z,9.35
2022-09-28T04:54:03.224Z,9.64
2022-09-28T04:57:06.277Z,9.68
2022-09-28T05:00:09.740Z,9.68
2022-09-28T05:03:11.723Z,9.58
2022-09-28T05:06:15.595Z,9.47
2022-09-28T05:09:17.356Z,9.36
2022-09-28T05:12:19.479Z,9.34
2022-09-28T05:15:21.157Z,9.25
2022-09-28T05:18:23.170Z,9.32
2022-09-28T05:21:26.436Z,9.43
2022-09-28T05:24:28.023Z,9.29
2022-09-28T05:27:29.629Z,9.43
2022-09-28T05:30:35.736Z,9.34
2022-09-28T05:33:37.691Z,9.32
2022-09-28T05:36:40.774Z,9.35
2022-09-28T05:39:42.460Z,9.66
2022-09-28T05:42:44.510Z,9.63
2022-09-28T05:45:46.436Z,9.89
2022-09-28T05:48:51.236Z,9.76
2022-09-28T05:51:53.078Z,9.74
2022-09-28T05:54:55.004Z,9.68
2022-09-28T05:58:01.013Z,9.89
2022-09-28T06:01:03.140Z,9.96
2022-09-28T06:04:05.006Z,10.11
2022-09-28T06:07:06.709Z,10.25
2022-09-28T06:10:08.841Z,10.32
2022-09-28T06:13:12.156Z,10.40
2022-09-28T06:16:18.807Z,10.70
2022-09-28T06:19:20.723Z,10.92
2022-09-28T06:22:22.388Z,11.07
2022-09-28T06:25:24.801Z,11.07
2022-09-28T06:28:32.602Z,11.14
2022-09-28T06:31:34.696Z,11.09
2022-09-28T06:34:36.482Z,11.45
2022-09-28T06:37:38.504Z,11.80
2022-09-28T06:40:40.250Z,11.91
2022-09-28T06:43:49.008Z,11.88
2022-09-28T06:46:52.241Z,12.36
2022-09-28T06:49:55.598Z,12.44
2022-09-28T06:52:59.390Z,11.95
2022-09-28T06:56:02.539Z,11.82
2022-09-28T06:59:06.216Z,12.01
2022-09-28T07:02:16.448Z,12.37
2022-09-28T07:05:19.204Z,12.44
2022-09-28T07:08:26.547Z,12.73
2022-09-28T07:11:29.480Z,13.04
2022-09-28T07:14:46.995Z,13.17
2022-09-28T07:18:00.612Z,13.89
2022-09-28T07:21:04.571Z,14.10
2022-09-28T07:24:06.937Z,14.56
2022-09-28T07:27:09.110Z,13.98
2022-09-28T07:30:11.547Z,13.84
2022-09-28T07:33:16.150Z,13.49
2022-09-28T07:36:18.618Z,13.61
2022-09-28T07:39:20.274Z,13.44
2022-09-28T07:42:22.133Z,13.64
2022-09-28T07:45:24.576Z,14.95
2022-09-28T07:48:26.369Z,16.78
2022-09-28T07:51:28.053Z,18.50
2022-09-28T07:54:31.290Z,20.04
2022-09-28T07:57:36.391Z,21.06
2022-09-28T08:00:38.558Z,21.83
2022-09-28T08:03:40.236Z,22.75
2022-09-28T08:06:42.880Z,23.08
2022-09-28T08:09:46.296Z,24.62
2022-09-28T08:12:47.995Z,24.92
2022-09-28T08:15:52.130Z,25.67
2022-09-28T08:18:54.344Z,26.07
2022-09-28T08:21:57.153Z,26.93
2022-09-28T08:24:59.082Z,25.60
2022-09-28T08:28:02.003Z,27.16
2022-09-28T08:31:04.106Z,27.37
2022-09-28T08:34:05.822Z,27.76
2022-09-28T08:37:12.820Z,25.60
2022-09-28T08:40:20.387Z,25.68
2022-09-28T08:43:59.851Z,27.07
2022-09-28T08:47:07.960Z,27.96
2022-09-28T08:50:17.831Z,28.17
2022-09-28T08:53:35.534Z,29.02
2022-09-28T08:56:47.448Z,30.95
2022-09-28T08:59:49.180Z,27.72
2022-09-28T09:02:51.265Z,29.14
2022-09-28T09:06:04.962Z,28.11
2022-09-28T09:09:23.405Z,30.06
2022-09-28T09:12:43.701Z,30.48
2022-09-28T09:15:48.838Z,31.41
2022-09-28T09:19:17.989Z,30.53
2022-09-28T09:22:40.800Z,31.36
2022-09-28T09:25:50.801Z,32.56
2022-09-28T09:29:07.562Z,33.23
2022-09-28T09:32:13.248Z,32.48
2022-09-28T09:35:28.486Z,30.98
2022-09-28T09:38:37.548Z,30.95
2022-09-28T09:41:52.467Z,31.00
2022-09-28T09:45:13.914Z,30.98
2022-09-28T09:48:31.371Z,32.42
2022-09-28T09:51:50.811Z,32.42
2022-09-28T09:54:58.334Z,29.36
2022-09-28T09:58:17.961Z,24.71
2022-09-28T10:01:27.124Z,24.51
2022-09-28T10:04:44.563Z,22.65
2022-09-28T10:08:00.345Z,21.21
2022-09-28T10:11:11.101Z,20.69
2022-09-28T10:14:17.451Z,19.96
2022-09-28T10:17:26.978Z,19.46
2022-09-28T10:20:34.676Z,18.98
2022-09-28T10:23:37.941Z,18.60
2022-09-28T10:26:43.297Z,18.72
2022-09-28T10:29:58.181Z,18.44
2022-09-28T10:33:01.437Z,17.88
2022-09-28T10:36:07.165Z,17.87
2022-09-28T10:39:26.655Z,18.42
2022-09-28T10:42:33.714Z,18.44
2022-09-28T10:45:36.968Z,18.14
2022-09-28T10:48:48.543Z,18.06
2022-09-28T10:51:56.400Z,17.72
2022-09-28T10:54:58.694Z,17.57
2022-09-28T10:58:01.164Z,17.64
2022-09-28T11:01:10.650Z,17.71
2022-09-28T11:04:21.643Z,18.00
2022-09-28T11:07:44.659Z,18.01
2022-09-28T11:10:46.326Z,18.64
2022-09-28T11:13:51.414Z,18.44
2022-09-28T11:17:18.366Z,18.83
2022-09-28T11:20:28.325Z,18.43
2022-09-28T11:23:31.236Z,18.18
2022-09-28T11:26:41.133Z,17.97
2022-09-28T11:30:00.836Z,18.20
2022-09-28T11:33:07.883Z,18.24
2022-09-28T11:36:16.778Z,18.76
2022-09-28T11:39:29.124Z,18.63
2022-09-28T11:42:49.505Z,18.68
2022-09-28T11:45:59.602Z,18.43
2022-09-28T11:49:15.366Z,18.63
2022-09-28T11:52:28.001Z,18.40
2022-09-28T11:55:46.173Z,18.57
2022-09-28T11:58:55.709Z,18.24
2022-09-28T12:02:14.974Z,18.14
2022-09-28T12:05:28.401Z,17.91
2022-09-28T12:08:35.109Z,18.03
2022-09-28T12:11:43.977Z,17.70
2022-09-28T12:14:47.592Z,17.78
2022-09-28T12:18:05.171Z,17.66
2022-09-28T12:21:30.567Z,17.80
2022-09-28T12:24:49.056Z,17.96
2022-09-28T12:27:58.218Z,18.02
2022-09-28T12:31:09.871Z,18.45
2022-09-28T12:34:12.385Z,18.70
2022-09-28T12:37:54.551Z,18.89
2022-09-28T12:40:58.586Z,18.86
2022-09-28T12:44:18.809Z,19.03
2022-09-28T12:47:47.946Z,18.87
2022-09-28T12:50:57.921Z,18.36
2022-09-28T12:54:39.756Z,18.53
2022-09-28T12:58:17.908Z,18.50
2022-09-28T13:01:48.830Z,18.68
2022-09-28T13:04:59.288Z,18.86
2022-09-28T13:08:19.139Z,18.78
2022-09-28T13:11:36.827Z,18.33
2022-09-28T13:14:58.307Z,18.40
2022-09-28T13:18:19.985Z,18.41
2022-09-28T13:21:43.818Z,21.74
2022-09-28T13:24:47.316Z,25.66
2022-09-28T13:27:59.252Z,27.59
2022-09-28T13:31:02.496Z,26.27
2022-09-28T13:34:05.973Z,24.61
2022-09-28T13:37:21.581Z,23.06
2022-09-28T13:41:02.990Z,22.14
2022-09-28T13:44:21.016Z,24.11
2022-09-28T13:47:57.766Z,22.84
2022-09-28T13:51:28.159Z,22.28
2022-09-28T13:55:21.668Z,25.58
2022-09-28T13:58:42.365Z,26.69
2022-09-28T14:02:09.672Z,25.09
2022-09-28T14:05:23.323Z,22.07
2022-09-28T14:08:33.629Z,19.90
2022-09-28T14:11:35.323Z,19.48
2022-09-28T14:14:49.220Z,18.45
2022-09-28T14:17:54.429Z,18.57
2022-09-28T14:21:17.525Z,18.11
2022-09-28T14:24:32.000Z,18.35
2022-09-28T14:28:08.085Z,18.56
2022-09-28T14:31:17.578Z,18.12
2022-09-28T14:34:47.255Z,17.83
2022-09-28T14:38:10.481Z,17.92
2022-09-28T14:41:18.119Z,18.18
2022-09-28T14:44:20.006Z,18.12
2022-09-28T14:47:40.834Z,18.00
2022-09-28T14:50:42.740Z,18.14
2022-09-28T14:53:45.568Z,17.86
2022-09-28T14:56:53.627Z,17.63
2022-09-28T14:59:59.518Z,17.64
2022-09-28T15:03:07.851Z,17.46
2022-09-28T15:06:16.940Z,17.32
2022-09-28T15:09:33.980Z,17.22
2022-09-28T15:12:36.136Z,17.22
2022-09-28T15:15:41.441Z,17.12
2022-09-28T15:19:09.689Z,17.08
2022-09-28T15:22:15.636Z,17.03
2022-09-28T15:25:20.874Z,16.77
2022-09-28T15:28:24.481Z,16.86
2022-09-28T15:31:28.441Z,16.62
2022-09-28T15:34:54.675Z,16.56
2022-09-28T15:37:56.646Z,16.64
2022-09-28T15:41:02.789Z,16.62
2022-09-28T15:44:08.440Z,16.73
2022-09-28T15:47:27.180Z,16.70
2022-09-28T15:50:30.099Z,16.65
2022-09-28T15:53:33.081Z,16.64
2022-09-28T15:56:54.887Z,16.48
2022-09-28T15:59:57.069Z,16.37
2022-09-28T16:03:08.295Z,16.25
2022-09-28T16:06:11.544Z,16.18
2022-09-28T16:09:40.277Z,16.24
2022-09-28T16:12:56.655Z,16.21
2022-09-28T16:16:01.423Z,16.20
2022-09-28T16:19:03.651Z,16.01
2022-09-28T16:22:16.353Z,15.95
2022-09-28T16:25:24.704Z,15.82
2022-09-28T16:28:38.592Z,15.68
2022-09-28T16:32:20.339Z,15.52
2022-09-28T16:35:29.225Z,15.63
2022-09-28T16:38:31.609Z,15.65
2022-09-28T16:41:33.408Z,15.47
2022-09-28T16:44:35.892Z,15.45
2022-09-28T16:47:39.733Z,15.40
2022-09-28T16:50:41.522Z,15.36
2022-09-28T16:54:02.867Z,15.26
2022-09-28T16:57:06.450Z,15.28
2022-09-28T17:00:17.139Z,15.04
2022-09-28T17:03:18.965Z,15.09
2022-09-28T17:06:24.737Z,15.13
2022-09-28T17:09:26.355Z,15.17
2022-09-28T17:12:28.953Z,15.14
2022-09-28T17:15:30.928Z,15.08
2022-09-28T17:18:32.808Z,14.98
2022-09-28T17:21:34.448Z,14.87
2022-09-28T17:24:37.035Z,15.01
2022-09-28T17:27:45.680Z,15.01
2022-09-28T17:30:47.869Z,15.05
2022-09-28T17:33:50.396Z,15.08
2022-09-28T17:36:54.328Z,14.99
2022-09-28T17:39:56.309Z,15.02
2022-09-28T17:42:58.953Z,15.12
2022-09-28T17:46:00.935Z,14.91
2022-09-28T17:49:05.099Z,14.71
2022-09-28T17:52:06.776Z,14.88
2022-09-28T17:55:08.937Z,14.72
2022-09-28T17:58:19.378Z,14.63
2022-09-28T18:01:21.076Z,14.71
2022-09-28T18:04:50.186Z,14.52
2022-09-28T18:07:47.553Z,14.61
2022-09-28T18:10:50.506Z,14.83
2022-09-28T18:13:52.242Z,14.70
2022-09-28T18:16:57.415Z,14.83
2022-09-28T18:19:59.331Z,14.92
2022-09-28T18:23:01.038Z,14.77
2022-09-28T18:26:03.413Z,14.87
2022-09-28T18:29:08.427Z,14.87
2022-09-28T18:32:10.285Z,14.91
2022-09-28T18:35:12.135Z,14.67
2022-09-28T18:38:13.943Z,14.63
2022-09-28T18:41:16.174Z,14.72
2022-09-28T18:44:18.267Z,14.58
2022-09-28T18:47:20.119Z,14.71
2022-09-28T18:50:22.119Z,14.70
2022-09-28T18:53:24.013Z,14.72
2022-09-28T18:56:27.051Z,14.74
2022-09-28T18:59:28.933Z,14.65
2022-09-28T19:02:30.763Z,14.69
2022-09-28T19:05:33.819Z,14.55
2022-09-28T19:08:36.081Z,14.64
2022-09-28T19:11:37.949Z,14.53
2022-09-28T19:14:39.615Z,14.55
2022-09-28T19:17:42.521Z,14.63
2022-09-28T19:20:44.832Z,14.56
2022-09-28T19:23:49.822Z,14.50
2022-09-28T19:26:55.003Z,14.65
2022-09-28T19:29:57.616Z,14.58
2022-09-28T19:33:00.233Z,14.52
2022-09-28T19:36:05.247Z,14.66
2022-09-28T19:39:07.848Z,14.35
2022-09-28T19:42:09.664Z,14.55
2022-09-28T19:45:14.620Z,14.36
2022-09-28T19:48:16.485Z,13.96
2022-09-28T19:51:19.135Z,14.40
2022-09-28T19:54:35.557Z,14.23
2022-09-28T19:57:47.893Z,14.26
2022-09-28T20:00:49.956Z,14.03
2022-09-28T20:03:51.548Z,14.01
2022-09-28T20:06:54.647Z,13.97
2022-09-28T20:09:56.619Z,14.13
2022-09-28T20:12:59.052Z,14.08
2022-09-28T20:16:08.865Z,13.86
2022-09-28T20:19:10.681Z,13.83
2022-09-28T20:22:12.252Z,13.22
2022-09-28T20:25:14.152Z,13.17
2022-09-28T20:28:16.425Z,13.11
2022-09-28T20:31:21.887Z,13.01
2022-09-28T20:34:23.633Z,13.53
2022-09-28T20:37:26.697Z,13.65
2022-09-28T20:40:28.440Z,13.74
2022-09-28T20:43:31.645Z,13.77
2022-09-28T20:46:37.018Z,13.79
2022-09-28T20:49:38.734Z,13.08
2022-09-28T20:52:42.755Z,13.29
2022-09-28T20:55:44.417Z,13.27
2022-09-28T20:58:46.714Z,12.85
2022-09-28T21:01:49.069Z,13.18
2022-09-28T21:04:51.358Z,13.32
2022-09-28T21:07:53.024Z,13.51
2022-09-28T21:10:54.881Z,13.45
2022-09-28T21:13:59.053Z,13.19
2022-09-28T21:17:00.751Z,13.11
2022-09-28T21:20:02.844Z,13.42
2022-09-28T21:23:06.419Z,13.42
2022-09-28T21:26:10.688Z,13.46
2022-09-28T21:29:14.921Z,13.49
2022-09-28T21:32:17.202Z,13.28
2022-09-28T21:35:18.830Z,12.98
2022-09-28T21:38:20.886Z,13.06
2022-09-28T21:41:23.280Z,13.29
2022-09-28T21:44:25.216Z,13.43
2022-09-28T21:47:26.846Z,13.39
2022-09-28T21:50:28.693Z,13.04
2022-09-28T21:53:34.121Z,13.16
2022-09-28T21:56:35.851Z,13.25
2022-09-28T21:59:37.974Z,13.28
2022-09-28T22:02:41.247Z,13.31
2022-09-28T22:05:43.600Z,13.28
2022-09-28T22:08:46.424Z,13.31
2022-09-28T22:11:49.670Z,13.22
2022-09-28T22:14:51.332Z,13.19
2022-09-28T22:17:55.317Z,12.90
2022-09-28T22:21:07.208Z,12.70
2022-09-28T22:24:10.128Z,12.73
2022-09-28T22:27:11.784Z,12.98
2022-09-28T22:30:13.695Z,13.03
2022-09-28T22:33:15.528Z,13.00
2022-09-28T22:36:17.253Z,13.08
2022-09-28T22:39:19.126Z,13.10
2022-09-28T22:42:22.075Z,13.09
2022-09-28T22:45:23.816Z,13.11
2022-09-28T22:48:25.489Z,13.02
2022-09-28T22:51:29.941Z,12.88
2022-09-28T22:54:34.224Z,13.01
2022-09-28T22:57:37.217Z,13.10
2022-09-28T23:00:46.622Z,13.07
2022-09-28T23:03:49.411Z,13.17
2022-09-28T23:06:51.129Z,13.05
2022-09-28T23:09:52.849Z,12.87
2022-09-28T23:12:54.992Z,12.99
2022-09-28T23:19:20.952Z,12.93
2022-09-28T23:22:22.562Z,13.00
2022-09-28T23:25:25.667Z,12.97
2022-09-28T23:28:27.907Z,12.93
2022-09-28T23:31:31.198Z,13.06
2022-09-28T23:34:33.159Z,13.06
2022-09-28T23:37:38.786Z,12.90
2022-09-28T23:40:45.132Z,12.98
2022-09-28T23:43:46.902Z,12.96
2022-09-28T23:46:48.887Z,13.11
2022-09-28T23:49:50.480Z,12.95
2022-09-28T23:52:52.095Z,12.95
2022-09-28T23:55:54.642Z,12.90
2022-09-28T23:58:56.417Z,12.98
